KLIMATOLOGI DAS SOKLAT BOHUSAMI

Tanggal Temperature (oC) RH (%) PAN 'A' Kecepatan Angin (KM/hari) Sinar Matahari (%) Hujan Biasa (mm)
Max Min Rata-rata Temp Air Dlm Tangki (oC) Penguapan (mm)
2021-11-30 33.5 23.8 28.65 86.8 30.5 4 111.3 14.96 2
2021-11-29 33.5 23.4 28.45 90 30.5 2.4 132.7 47.38 34.4
2021-11-28 33.5 24 28.75 79.8 31 2 122.3 50.71 28
2021-11-27 33.5 24 28.75 92.6 30.5 2.4 61.7 7.48 8.4
2021-11-26 33.5 24 28.75 89 31 2.2 78.4 25.77 5.2
2021-11-25 33.5 24.2 28.85 84.2 31 2 101.7 15.79 13
2021-11-24 33.5 24.2 28.85 87 31 4 99.3 37.41 1
2021-11-23 33.5 24.2 28.85 91 31 4.6 99.2 78.97 2.6
2021-11-22 33.5 24.2 28.85 79.8 30.5 6 86.5 79.8 0
2021-11-21 33.5 24.4 28.95 84.6 30.5 5 96.3 67.33 0
2021-11-20 33.5 24.4 28.95 83 30.5 5 96.1 73.15 0
2021-11-19 33.5 24.4 28.95 87 30 2.4 88.6 64.84 9.4
2021-11-18 33.5 24.4 28.95 89 29.5 2.8 96.3 60.68 18.8
2021-11-17 33.5 24.6 29.05 85.2 29 2.6 111 45.72 9.6
2021-11-16 33 22.2 27.6 78.2 30.5 4 102.9 54.03 0
2021-11-15 33 22.2 27.6 85.2 30.5 4.6 112.8 44.39 26.6
2021-11-14 33 22.4 27.7 84.2 30.5 2 67.9 10.89 0
2021-11-13 33 22.4 27.7 90 30.5 2 104.7 59.46 26
2021-11-12 33 22.4 27.7 87 31 4 93.9 55.28 0
2021-11-11 33 22.6 27.8 92 31 2 79.6 36.85 0
2021-11-10 33 22.6 27.8 92.6 31.5 2.4 94.8 70.35 90.4
2021-11-09 33 22.8 27.9 89 31.5 2.4 62 3.35 23.4
2021-11-08 33 22.8 27.9 96 31.5 4.8 108.2 72.03 8.8
2021-11-07 32.5 23 27.75 78.2 31 6 85.6 87.1 0
2021-11-06 32.5 23 27.75 74.4 31 4 83.5 75.38 0
2021-11-05 32.5 23.2 27.85 91 31 3 68.2 37.69 0.01
2021-11-04 32.5 23.2 27.85 96 31 2.2 113.9 77.89 59.2
2021-11-03 32.5 24.4 28.45 85.2 31 4 116.9 68.68 0.01
2021-11-02 32 24.6 28.3 85.4 31 5 89.7 68.68 0
2021-11-01 33 23 28 84.2 30.5 5 77 72.86 0